map of ANR home
ANR - Airport
Location
City:  Antwerp, Antwerpen, Belgium
Near (Alt.):Antwerpen
Name:Deurne
ICAO:EBAW
IATA:ANR

Details
Type:Airport (Aerodrome, Airfield)
Latitude:5111'22"N (51.189444)
Longitude:427'37"E (4.460278)
Elevation:39 ft (12 m)
Variation:1.43E (WMM2015v2 magnetic declination)
0.18 annual change
Runways:1
Longest:4954 × 148 ft (1510 × 45 m), paved

Time
Time Zone:UTC+1 (DST+2)
Local Time:

Weather
METAR:EBAW 041350Z 20015KT 170V230 6000 -RA BKN010 BKN014 03/00 Q1023 TEMPO 20020G30KT 4000 RASN SCT005 BKN008

Related Locations
Nearby:
Farthest:CHT: 11918 mi / 19181 km
Waitangi [Tuuta], CIT, NZ

Find:

   beyond  
but within

Other Information
Maps:
NOTAMs:
Links:
Sources:

  
  • flag of Belgium
  • flag of Antwerpen
  • flag of Antwerp
  

Airport Diagram

Airport diagram for ANR

Larger airport diagram (OBSOLETE) from NGA

Sectional Chart

Flight Planning
at skyvector.com

Satellite Image

Google Maps Satellite view

 

Copyright © 2004-2019 Karl L. Swartz. All rights reserved.
The Great Circle Mapper name and logo are trademarks of the Great Circle Mapper.
All other trademarks mentioned herein belong to their respective owners.
Please see credits for attibutions and further copyright information.

  Follow gcmap on Facebook Follow gcmap on Twitter GCmap on LinkedIn

hCard Microformat

Geo Microformat